Main page
METAR-TAF:

METAR-TAF

Airports :

Jersey Airport

Jersey,

latitude: 49-13N, longitude: 002-12W, elevation: 84 m

Current weather observation

The report was made 30 minutes ago, at 22:50 UTC
Wind 9 kt from the East/Southeast, varying between East/Northeast and South/Southeast
Temperature 15°C
Humidity 67%
Pressure 999 hPa
Visibility 10 km or more
rain

METAR: EGJJ 222250Z AUTO 12009KT 070V150 9999 RA FEW012/// 15/09 Q0999 REDZ

Time: 00:20 (23:20 UTC)

Forecast

The report was made 3 hours and 16 minutes ago, at 20:04 UTC
Forecast valid from 22 at 21 UTC to 23 at 06 UTC
Wind 11 kt from the East
Visibility 10 km or more
Few clouds at a height of 4500 ft
Probability 30% :
Temporary
from 22 at 21 UTC to 23 at 03 UTC
Wind 15 kt from the East/Southeast with gusts up to 28 kt
Visibility: 8000 m
Broken clouds at a height of 5000 ft, Cumulonimbus.
rain showers

TAF: EGJJ 222004Z 2221/2306 10011KT 9999 FEW045 PROB30 TEMPO 2221/2303 12015G28KT 8000 SHRA BKN050CB

Weather observations and forecasts of more than 4000 airports (METAR and TAF reports).

The available stations are represented by yellow and red dots on the map.

Hover mouse over dot to see the name of the station.

Then click to see weather observations and forecasts.

To change the map : click on the green buttons with a black cross to zoom in, on the green button with a dash to zoom out, or on the green arrows for adjacent maps.


METAR-TAF: